Secane, Pennsylvania
Current Conditions -  °F | °C
As of 9:54 AM on Saturday 20 Dec 2014 (Local Time) from KPHL Reporting Station
Overcast Overcast  
Wind Chill: 29°   Ceiling: 2900
Heat Index: 33°   Visibility: 10mi
Dew Point: 21°   Wind: 5mph
Humidity: 61%   Direction: 320°NW
Pressure: 30.33"   Gusts: NA
Location:  39.9228°N, 75.2984°W
Report Text: KPHL 201454Z 32004KT 10SM OVC029 01/M06 A3033 RMK AO2 SLP269 T00061061 51020
Loading
Personal Weather Stations






























Interactive Weather Map New forecast layout! Learn more

10-Day Weather Forecast

Advertisements
Track Severe Weather on mobile